sensor_id;sensor_type;location;lat;lon;timestamp;temperature;humidity
580;DHT22;276;48.392;9.950;2023-11-21T00:02:29;10.50;99.90
580;DHT22;276;48.392;9.950;2023-11-21T00:05:00;10.50;99.90
580;DHT22;276;48.392;9.950;2023-11-21T00:07:25;10.40;99.90
580;DHT22;276;48.392;9.950;2023-11-21T00:09:51;10.40;99.90
580;DHT22;276;48.392;9.950;2023-11-21T00:12:21;10.40;99.90
580;DHT22;276;48.392;9.950;2023-11-21T00:14:49;10.40;99.90
580;DHT22;276;48.392;9.950;2023-11-21T00:17:17;10.40;99.90
580;DHT22;276;48.392;9.950;2023-11-21T00:19:42;10.50;99.90
580;DHT22;276;48.392;9.950;2023-11-21T00:22:08;10.50;99.90
580;DHT22;276;48.392;9.950;2023-11-21T00:24:34;10.50;99.90
580;DHT22;276;48.392;9.950;2023-11-21T00:27:02;10.50;99.90
580;DHT22;276;48.392;9.950;2023-11-21T00:29:28;10.40;99.90
580;DHT22;276;48.392;9.950;2023-11-21T00:31:56;10.40;99.90
580;DHT22;276;48.392;9.950;2023-11-21T00:34:21;10.30;99.90
580;DHT22;276;48.392;9.950;2023-11-21T00:36:49;10.30;99.90
580;DHT22;276;48.392;9.950;2023-11-21T00:39:17;10.30;99.90
580;DHT22;276;48.392;9.950;2023-11-21T00:41:43;10.30;99.90
580;DHT22;276;48.392;9.950;2023-11-21T00:44:10;10.30;99.90
580;DHT22;276;48.392;9.950;2023-11-21T00:46:36;10.20;99.90
580;DHT22;276;48.392;9.950;2023-11-21T00:49:02;10.20;99.90
580;DHT22;276;48.392;9.950;2023-11-21T00:51:30;10.20;99.90
580;DHT22;276;48.392;9.950;2023-11-21T00:53:56;10.20;99.90
580;DHT22;276;48.392;9.950;2023-11-21T00:56:26;10.30;99.90
580;DHT22;276;48.392;9.950;2023-11-21T00:58:52;10.30;99.90
580;DHT22;276;48.392;9.950;2023-11-21T01:01:19;10.20;99.90
580;DHT22;276;48.392;9.950;2023-11-21T01:03:50;10.20;99.90
580;DHT22;276;48.392;9.950;2023-11-21T01:06:16;10.30;99.90
580;DHT22;276;48.392;9.950;2023-11-21T01:08:43;10.30;99.90
580;DHT22;276;48.392;9.950;2023-11-21T01:11:14;10.40;99.90
580;DHT22;276;48.392;9.950;2023-11-21T01:13:40;10.40;99.90
580;DHT22;276;48.392;9.950;2023-11-21T01:16:07;10.40;99.90
580;DHT22;276;48.392;9.950;2023-11-21T01:18:35;10.50;99.90
580;DHT22;276;48.392;9.950;2023-11-21T01:21:01;10.50;99.90
580;DHT22;276;48.392;9.950;2023-11-21T01:23:27;10.50;99.90
580;DHT22;276;48.392;9.950;2023-11-21T01:25:53;10.50;99.90
580;DHT22;276;48.392;9.950;2023-11-21T01:28:20;10.50;99.90
580;DHT22;276;48.392;9.950;2023-11-21T01:30:48;10.50;99.90
580;DHT22;276;48.392;9.950;2023-11-21T01:33:14;10.50;99.90
580;DHT22;276;48.392;9.950;2023-11-21T01:35:41;10.50;99.90
580;DHT22;276;48.392;9.950;2023-11-21T01:38:07;10.50;99.90
580;DHT22;276;48.392;9.950;2023-11-21T01:40:34;10.50;99.90
580;DHT22;276;48.392;9.950;2023-11-21T01:43:00;10.50;99.90
580;DHT22;276;48.392;9.950;2023-11-21T01:45:28;10.50;99.90
580;DHT22;276;48.392;9.950;2023-11-21T01:47:56;10.40;99.90
580;DHT22;276;48.392;9.950;2023-11-21T01:50:24;10.30;99.90
580;DHT22;276;48.392;9.950;2023-11-21T01:52:54;10.20;99.90
580;DHT22;276;48.392;9.950;2023-11-21T01:55:20;10.20;99.90
580;DHT22;276;48.392;9.950;2023-11-21T01:57:51;10.20;99.90
580;DHT22;276;48.392;9.950;2023-11-21T02:00:19;10.10;99.90
580;DHT22;276;48.392;9.950;2023-11-21T02:02:47;10.10;99.90
580;DHT22;276;48.392;9.950;2023-11-21T02:05:17;10.10;99.90
580;DHT22;276;48.392;9.950;2023-11-21T02:07:49;10.20;99.90
580;DHT22;276;48.392;9.950;2023-11-21T02:10:15;10.20;99.90
580;DHT22;276;48.392;9.950;2023-11-21T02:12:42;10.20;99.90
580;DHT22;276;48.392;9.950;2023-11-21T02:15:10;10.20;99.90
580;DHT22;276;48.392;9.950;2023-11-21T02:17:43;10.20;99.90
580;DHT22;276;48.392;9.950;2023-11-21T02:20:10;10.20;99.90
580;DHT22;276;48.392;9.950;2023-11-21T02:22:41;10.20;99.90
580;DHT22;276;48.392;9.950;2023-11-21T02:25:09;10.20;99.90
580;DHT22;276;48.392;9.950;2023-11-21T02:27:35;10.20;99.90
580;DHT22;276;48.392;9.950;2023-11-21T02:30:04;10.30;99.90
580;DHT22;276;48.392;9.950;2023-11-21T02:32:35;10.30;99.90
580;DHT22;276;48.392;9.950;2023-11-21T02:35:00;10.40;99.90
580;DHT22;276;48.392;9.950;2023-11-21T02:37:27;10.30;99.90
580;DHT22;276;48.392;9.950;2023-11-21T02:39:52;10.40;99.90
580;DHT22;276;48.392;9.950;2023-11-21T02:42:18;10.40;99.90
580;DHT22;276;48.392;9.950;2023-11-21T02:44:44;10.40;99.90
580;DHT22;276;48.392;9.950;2023-11-21T02:47:09;10.40;99.90
580;DHT22;276;48.392;9.950;2023-11-21T02:49:38;10.40;99.90
580;DHT22;276;48.392;9.950;2023-11-21T02:52:03;10.40;99.90
580;DHT22;276;48.392;9.950;2023-11-21T02:54:29;10.30;99.90
580;DHT22;276;48.392;9.950;2023-11-21T02:56:55;10.30;99.90
580;DHT22;276;48.392;9.950;2023-11-21T02:59:20;10.20;99.90
580;DHT22;276;48.392;9.950;2023-11-21T03:01:48;10.20;99.90
580;DHT22;276;48.392;9.950;2023-11-21T03:04:16;10.20;99.90
580;DHT22;276;48.392;9.950;2023-11-21T03:06:44;10.10;99.90
580;DHT22;276;48.392;9.950;2023-11-21T03:09:11;10.10;99.90
580;DHT22;276;48.392;9.950;2023-11-21T03:11:39;10.10;99.90
580;DHT22;276;48.392;9.950;2023-11-21T03:14:07;10.00;99.90
580;DHT22;276;48.392;9.950;2023-11-21T03:16:35;10.00;99.90
580;DHT22;276;48.392;9.950;2023-11-21T03:19:01;9.90;99.90
580;DHT22;276;48.392;9.950;2023-11-21T03:21:28;9.90;99.90
580;DHT22;276;48.392;9.950;2023-11-21T03:23:54;9.90;99.90
580;DHT22;276;48.392;9.950;2023-11-21T03:26:20;9.90;99.90
580;DHT22;276;48.392;9.950;2023-11-21T03:28:48;9.80;99.90
580;DHT22;276;48.392;9.950;2023-11-21T03:31:13;9.80;99.90
580;DHT22;276;48.392;9.950;2023-11-21T03:33:39;9.70;99.90
580;DHT22;276;48.392;9.950;2023-11-21T03:36:05;9.70;99.90
580;DHT22;276;48.392;9.950;2023-11-21T03:38:33;9.70;99.90
580;DHT22;276;48.392;9.950;2023-11-21T03:41:01;9.70;99.90
580;DHT22;276;48.392;9.950;2023-11-21T03:43:26;9.70;99.90
580;DHT22;276;48.392;9.950;2023-11-21T03:45:52;9.70;99.90
580;DHT22;276;48.392;9.950;2023-11-21T03:48:17;9.60;99.90
580;DHT22;276;48.392;9.950;2023-11-21T03:50:45;9.60;99.90
580;DHT22;276;48.392;9.950;2023-11-21T03:53:12;9.60;99.90
580;DHT22;276;48.392;9.950;2023-11-21T03:55:38;9.60;99.90
580;DHT22;276;48.392;9.950;2023-11-21T03:58:03;9.70;99.90
580;DHT22;276;48.392;9.950;2023-11-21T04:00:29;9.60;99.90
580;DHT22;276;48.392;9.950;2023-11-21T04:02:57;9.60;99.90
580;DHT22;276;48.392;9.950;2023-11-21T04:05:23;9.70;99.90
580;DHT22;276;48.392;9.950;2023-11-21T04:07:51;9.70;99.90
580;DHT22;276;48.392;9.950;2023-11-21T04:10:20;9.70;99.90
580;DHT22;276;48.392;9.950;2023-11-21T04:12:45;9.70;99.90
580;DHT22;276;48.392;9.950;2023-11-21T04:15:11;9.70;99.90
580;DHT22;276;48.392;9.950;2023-11-21T04:17:43;9.70;99.90
580;DHT22;276;48.392;9.950;2023-11-21T04:20:13;9.80;99.90
580;DHT22;276;48.392;9.950;2023-11-21T04:22:39;9.80;99.90
580;DHT22;276;48.392;9.950;2023-11-21T04:25:10;9.80;99.90
580;DHT22;276;48.392;9.950;2023-11-21T04:27:41;9.90;99.90
580;DHT22;276;48.392;9.950;2023-11-21T04:30:14;9.90;99.90
580;DHT22;276;48.392;9.950;2023-11-21T04:32:40;10.00;99.90
580;DHT22;276;48.392;9.950;2023-11-21T04:35:08;10.00;99.90
580;DHT22;276;48.392;9.950;2023-11-21T04:37:34;10.00;99.90
580;DHT22;276;48.392;9.950;2023-11-21T04:39:59;10.00;99.90
580;DHT22;276;48.392;9.950;2023-11-21T04:42:25;10.00;99.90
580;DHT22;276;48.392;9.950;2023-11-21T04:44:51;9.90;99.90
580;DHT22;276;48.392;9.950;2023-11-21T04:47:20;9.90;99.90
580;DHT22;276;48.392;9.950;2023-11-21T04:49:48;9.90;99.90
580;DHT22;276;48.392;9.950;2023-11-21T04:52:17;9.90;99.90
580;DHT22;276;48.392;9.950;2023-11-21T04:54:43;9.90;99.90
580;DHT22;276;48.392;9.950;2023-11-21T04:57:10;9.80;99.90
580;DHT22;276;48.392;9.950;2023-11-21T04:59:36;9.80;99.90
580;DHT22;276;48.392;9.950;2023-11-21T05:02:02;9.80;99.90
580;DHT22;276;48.392;9.950;2023-11-21T05:04:30;9.70;99.90
580;DHT22;276;48.392;9.950;2023-11-21T05:07:00;9.80;99.90
580;DHT22;276;48.392;9.950;2023-11-21T05:09:26;9.80;99.90
580;DHT22;276;48.392;9.950;2023-11-21T05:11:54;9.70;99.90
580;DHT22;276;48.392;9.950;2023-11-21T05:14:22;9.70;99.90
580;DHT22;276;48.392;9.950;2023-11-21T05:16:47;9.70;99.90
580;DHT22;276;48.392;9.950;2023-11-21T05:19:16;9.70;99.90
580;DHT22;276;48.392;9.950;2023-11-21T05:21:41;9.60;99.90
580;DHT22;276;48.392;9.950;2023-11-21T05:24:07;9.60;99.90
580;DHT22;276;48.392;9.950;2023-11-21T05:26:33;9.60;99.90
580;DHT22;276;48.392;9.950;2023-11-21T05:28:58;9.60;99.90
580;DHT22;276;48.392;9.950;2023-11-21T05:31:24;9.50;99.90
580;DHT22;276;48.392;9.950;2023-11-21T05:33:52;9.60;99.90
580;DHT22;276;48.392;9.950;2023-11-21T05:36:18;9.60;99.90
580;DHT22;276;48.392;9.950;2023-11-21T05:38:46;9.60;99.90
580;DHT22;276;48.392;9.950;2023-11-21T05:41:11;9.60;99.90
580;DHT22;276;48.392;9.950;2023-11-21T05:43:41;9.60;99.90
580;DHT22;276;48.392;9.950;2023-11-21T05:46:06;9.50;99.90
580;DHT22;276;48.392;9.950;2023-11-21T05:48:32;9.50;99.90
580;DHT22;276;48.392;9.950;2023-11-21T05:51:01;9.60;99.90
580;DHT22;276;48.392;9.950;2023-11-21T05:53:27;9.60;99.90
580;DHT22;276;48.392;9.950;2023-11-21T05:55:52;9.70;99.90
580;DHT22;276;48.392;9.950;2023-11-21T05:58:18;9.70;99.90
580;DHT22;276;48.392;9.950;2023-11-21T06:00:43;9.70;99.90
580;DHT22;276;48.392;9.950;2023-11-21T06:03:13;9.70;99.90
580;DHT22;276;48.392;9.950;2023-11-21T06:05:39;9.70;99.90
580;DHT22;276;48.392;9.950;2023-11-21T06:08:05;9.70;99.90
580;DHT22;276;48.392;9.950;2023-11-21T06:10:32;9.70;99.90
580;DHT22;276;48.392;9.950;2023-11-21T06:12:57;9.60;99.90
580;DHT22;276;48.392;9.950;2023-11-21T06:15:25;9.60;99.90
580;DHT22;276;48.392;9.950;2023-11-21T06:17:51;9.70;99.90
580;DHT22;276;48.392;9.950;2023-11-21T06:20:21;9.70;99.90
580;DHT22;276;48.392;9.950;2023-11-21T06:22:51;9.70;99.90
580;DHT22;276;48.392;9.950;2023-11-21T06:25:16;9.70;99.90
580;DHT22;276;48.392;9.950;2023-11-21T06:27:48;9.70;99.90
580;DHT22;276;48.392;9.950;2023-11-21T06:30:15;9.80;99.90
580;DHT22;276;48.392;9.950;2023-11-21T06:32:41;9.80;99.90
580;DHT22;276;48.392;9.950;2023-11-21T06:35:07;9.80;99.90
580;DHT22;276;48.392;9.950;2023-11-21T06:37:36;9.90;99.90
580;DHT22;276;48.392;9.950;2023-11-21T06:40:02;9.90;99.90
580;DHT22;276;48.392;9.950;2023-11-21T06:42:29;9.90;99.90
580;DHT22;276;48.392;9.950;2023-11-21T06:44:55;9.90;99.90
580;DHT22;276;48.392;9.950;2023-11-21T06:47:25;9.90;99.90
580;DHT22;276;48.392;9.950;2023-11-21T06:49:51;9.90;99.90
580;DHT22;276;48.392;9.950;2023-11-21T06:52:23;9.90;99.90
580;DHT22;276;48.392;9.950;2023-11-21T06:54:49;9.90;99.90
580;DHT22;276;48.392;9.950;2023-11-21T06:57:15;9.90;99.90
580;DHT22;276;48.392;9.950;2023-11-21T06:59:45;9.90;99.90
580;DHT22;276;48.392;9.950;2023-11-21T07:02:11;9.90;99.90
580;DHT22;276;48.392;9.950;2023-11-21T07:04:39;9.80;99.90
580;DHT22;276;48.392;9.950;2023-11-21T07:07:08;9.80;99.90
580;DHT22;276;48.392;9.950;2023-11-21T07:09:36;9.80;99.90
580;DHT22;276;48.392;9.950;2023-11-21T07:12:02;9.90;99.90
580;DHT22;276;48.392;9.950;2023-11-21T07:14:29;9.90;99.90
580;DHT22;276;48.392;9.950;2023-11-21T07:16:54;10.00;99.90
580;DHT22;276;48.392;9.950;2023-11-21T07:19:20;10.00;99.90
580;DHT22;276;48.392;9.950;2023-11-21T07:21:49;10.00;99.90
580;DHT22;276;48.392;9.950;2023-11-21T07:24:16;10.10;99.90
580;DHT22;276;48.392;9.950;2023-11-21T07:26:42;10.10;99.90
580;DHT22;276;48.392;9.950;2023-11-21T07:29:08;10.20;99.90
580;DHT22;276;48.392;9.950;2023-11-21T07:31:34;10.20;99.90
580;DHT22;276;48.392;9.950;2023-11-21T07:34:02;10.20;99.90
580;DHT22;276;48.392;9.950;2023-11-21T07:36:30;10.20;99.90
580;DHT22;276;48.392;9.950;2023-11-21T07:38:58;10.20;99.90
580;DHT22;276;48.392;9.950;2023-11-21T07:41:24;10.30;99.90
580;DHT22;276;48.392;9.950;2023-11-21T07:43:49;10.30;99.90
580;DHT22;276;48.392;9.950;2023-11-21T07:46:17;10.40;99.90
580;DHT22;276;48.392;9.950;2023-11-21T07:48:43;10.40;99.90
580;DHT22;276;48.392;9.950;2023-11-21T07:51:09;10.50;99.90
580;DHT22;276;48.392;9.950;2023-11-21T07:53:36;10.50;99.90
580;DHT22;276;48.392;9.950;2023-11-21T07:56:08;10.60;99.90
580;DHT22;276;48.392;9.950;2023-11-21T07:58:36;10.60;99.90
580;DHT22;276;48.392;9.950;2023-11-21T08:01:02;10.70;99.90
580;DHT22;276;48.392;9.950;2023-11-21T08:03:29;10.70;99.90
580;DHT22;276;48.392;9.950;2023-11-21T08:05:58;10.80;99.90
580;DHT22;276;48.392;9.950;2023-11-21T08:08:26;10.80;99.90
580;DHT22;276;48.392;9.950;2023-11-21T08:10:53;10.90;99.90
580;DHT22;276;48.392;9.950;2023-11-21T08:13:25;10.90;99.90
580;DHT22;276;48.392;9.950;2023-11-21T08:15:56;11.00;99.90
580;DHT22;276;48.392;9.950;2023-11-21T08:18:27;11.00;99.90
580;DHT22;276;48.392;9.950;2023-11-21T08:20:55;11.10;99.90
580;DHT22;276;48.392;9.950;2023-11-21T08:23:21;11.10;99.90
580;DHT22;276;48.392;9.950;2023-11-21T08:25:51;11.10;99.90
580;DHT22;276;48.392;9.950;2023-11-21T08:28:19;11.00;99.90
580;DHT22;276;48.392;9.950;2023-11-21T08:30:50;11.10;99.90
580;DHT22;276;48.392;9.950;2023-11-21T08:33:15;11.10;99.90
580;DHT22;276;48.392;9.950;2023-11-21T08:35:41;11.20;99.90
580;DHT22;276;48.392;9.950;2023-11-21T08:38:06;11.20;99.90
580;DHT22;276;48.392;9.950;2023-11-21T08:40:32;11.30;99.90
580;DHT22;276;48.392;9.950;2023-11-21T08:43:00;11.40;99.90
580;DHT22;276;48.392;9.950;2023-11-21T08:45:26;11.50;99.90
580;DHT22;276;48.392;9.950;2023-11-21T08:47:52;11.60;99.90
580;DHT22;276;48.392;9.950;2023-11-21T08:50:17;11.70;99.90
580;DHT22;276;48.392;9.950;2023-11-21T08:52:44;11.90;99.90
580;DHT22;276;48.392;9.950;2023-11-21T08:55:11;11.90;99.90
580;DHT22;276;48.392;9.950;2023-11-21T08:57:38;12.10;99.90
580;DHT22;276;48.392;9.950;2023-11-21T09:00:05;12.20;99.90
580;DHT22;276;48.392;9.950;2023-11-21T09:02:35;12.30;99.90
580;DHT22;276;48.392;9.950;2023-11-21T09:05:05;12.40;99.90
580;DHT22;276;48.392;9.950;2023-11-21T09:07:31;12.40;99.90
580;DHT22;276;48.392;9.950;2023-11-21T09:09:56;12.40;99.90
580;DHT22;276;48.392;9.950;2023-11-21T09:12:22;12.50;99.90
580;DHT22;276;48.392;9.950;2023-11-21T09:14:52;12.70;99.90
580;DHT22;276;48.392;9.950;2023-11-21T09:17:18;12.90;99.90
580;DHT22;276;48.392;9.950;2023-11-21T09:19:44;13.00;99.90
580;DHT22;276;48.392;9.950;2023-11-21T09:22:19;13.00;99.90
580;DHT22;276;48.392;9.950;2023-11-21T09:24:45;13.20;99.90
580;DHT22;276;48.392;9.950;2023-11-21T09:27:10;13.50;99.90
580;DHT22;276;48.392;9.950;2023-11-21T09:29:41;13.80;99.90
580;DHT22;276;48.392;9.950;2023-11-21T09:32:06;13.90;99.90
580;DHT22;276;48.392;9.950;2023-11-21T09:34:38;13.90;99.90
580;DHT22;276;48.392;9.950;2023-11-21T09:37:07;14.00;99.90
580;DHT22;276;48.392;9.950;2023-11-21T09:39:34;13.90;99.90
580;DHT22;276;48.392;9.950;2023-11-21T09:45:08;13.60;99.90
580;DHT22;276;48.392;9.950;2023-11-21T09:47:39;13.50;99.90
580;DHT22;276;48.392;9.950;2023-11-21T09:50:07;13.60;99.90
580;DHT22;276;48.392;9.950;2023-11-21T09:55:26;14.10;99.90
580;DHT22;276;48.392;9.950;2023-11-21T09:57:58;14.10;99.90
580;DHT22;276;48.392;9.950;2023-11-21T10:00:23;14.10;99.90
580;DHT22;276;48.392;9.950;2023-11-21T10:02:52;14.10;99.90
580;DHT22;276;48.392;9.950;2023-11-21T10:05:21;14.10;99.90
580;DHT22;276;48.392;9.950;2023-11-21T10:07:50;13.90;99.90
580;DHT22;276;48.392;9.950;2023-11-21T10:10:19;13.70;99.90
580;DHT22;276;48.392;9.950;2023-11-21T10:12:49;13.60;99.90
580;DHT22;276;48.392;9.950;2023-11-21T10:15:21;13.70;99.90
580;DHT22;276;48.392;9.950;2023-11-21T10:17:53;13.80;99.90
580;DHT22;276;48.392;9.950;2023-11-21T10:20:25;14.30;99.90
580;DHT22;276;48.392;9.950;2023-11-21T10:22:51;15.60;99.90
580;DHT22;276;48.392;9.950;2023-11-21T10:25:17;16.80;99.90
580;DHT22;276;48.392;9.950;2023-11-21T10:27:49;18.00;99.90
580;DHT22;276;48.392;9.950;2023-11-21T10:30:18;19.60;98.00
580;DHT22;276;48.392;9.950;2023-11-21T10:32:44;21.20;95.20
580;DHT22;276;48.392;9.950;2023-11-21T10:35:10;22.70;92.20
580;DHT22;276;48.392;9.950;2023-11-21T10:37:38;24.00;86.90
580;DHT22;276;48.392;9.950;2023-11-21T10:40:11;25.10;83.40
580;DHT22;276;48.392;9.950;2023-11-21T10:42:38;26.40;78.30
580;DHT22;276;48.392;9.950;2023-11-21T10:45:05;27.60;73.60
580;DHT22;276;48.392;9.950;2023-11-21T10:47:43;28.30;68.00
580;DHT22;276;48.392;9.950;2023-11-21T10:50:11;28.30;64.80
580;DHT22;276;48.392;9.950;2023-11-21T10:52:40;27.80;62.10
580;DHT22;276;48.392;9.950;2023-11-21T10:55:20;28.20;61.00
580;DHT22;276;48.392;9.950;2023-11-21T10:57:53;27.80;60.40
580;DHT22;276;48.392;9.950;2023-11-21T11:00:19;27.60;60.60
580;DHT22;276;48.392;9.950;2023-11-21T11:02:50;27.80;59.40
580;DHT22;276;48.392;9.950;2023-11-21T11:05:22;28.90;58.00
580;DHT22;276;48.392;9.950;2023-11-21T11:07:55;29.70;55.90
580;DHT22;276;48.392;9.950;2023-11-21T11:10:25;28.40;55.50
580;DHT22;276;48.392;9.950;2023-11-21T11:12:55;26.30;57.10
580;DHT22;276;48.392;9.950;2023-11-21T11:15:28;24.40;59.50
580;DHT22;276;48.392;9.950;2023-11-21T11:17:54;22.80;62.90
580;DHT22;276;48.392;9.950;2023-11-21T11:20:24;22.00;65.50
580;DHT22;276;48.392;9.950;2023-11-21T11:23:37;23.10;66.70
580;DHT22;276;48.392;9.950;2023-11-21T11:28:38;23.80;62.40
580;DHT22;276;48.392;9.950;2023-11-21T11:36:49;19.90;69.60
580;DHT22;276;48.392;9.950;2023-11-21T11:39:36;19.00;72.00
580;DHT22;276;48.392;9.950;2023-11-21T11:42:12;18.20;74.10
580;DHT22;276;48.392;9.950;2023-11-21T11:47:15;17.00;78.20
580;DHT22;276;48.392;9.950;2023-11-21T11:52:35;16.10;82.30
580;DHT22;276;48.392;9.950;2023-11-21T11:55:07;15.70;83.90
580;DHT22;276;48.392;9.950;2023-11-21T11:57:38;15.50;85.80
580;DHT22;276;48.392;9.950;2023-11-21T12:00:12;15.30;87.00
580;DHT22;276;48.392;9.950;2023-11-21T12:02:42;15.30;88.50
580;DHT22;276;48.392;9.950;2023-11-21T12:05:29;15.60;90.10
580;DHT22;276;48.392;9.950;2023-11-21T12:08:00;16.30;90.30
580;DHT22;276;48.392;9.950;2023-11-21T12:10:28;16.70;90.10
580;DHT22;276;48.392;9.950;2023-11-21T12:12:56;16.70;90.10
580;DHT22;276;48.392;9.950;2023-11-21T12:15:23;16.80;90.20
580;DHT22;276;48.392;9.950;2023-11-21T12:17:49;16.90;90.20
580;DHT22;276;48.392;9.950;2023-11-21T12:20:24;16.90;90.00
580;DHT22;276;48.392;9.950;2023-11-21T12:22:52;17.00;90.40
580;DHT22;276;48.392;9.950;2023-11-21T12:25:20;18.10;90.20
580;DHT22;276;48.392;9.950;2023-11-21T12:27:50;20.00;87.80
580;DHT22;276;48.392;9.950;2023-11-21T12:30:22;22.00;82.10
580;DHT22;276;48.392;9.950;2023-11-21T12:32:53;23.30;76.80
580;DHT22;276;48.392;9.950;2023-11-21T12:35:20;24.30;72.90
580;DHT22;276;48.392;9.950;2023-11-21T12:37:47;25.10;69.70
580;DHT22;276;48.392;9.950;2023-11-21T12:40:14;25.40;66.90
580;DHT22;276;48.392;9.950;2023-11-21T12:42:47;24.70;66.10
580;DHT22;276;48.392;9.950;2023-11-21T12:47:52;22.40;69.20
580;DHT22;276;48.392;9.950;2023-11-21T12:50:22;21.30;71.60
580;DHT22;276;48.392;9.950;2023-11-21T12:52:58;20.40;74.20
580;DHT22;276;48.392;9.950;2023-11-21T12:55:24;19.50;76.60
580;DHT22;276;48.392;9.950;2023-11-21T12:57:53;18.80;78.60
580;DHT22;276;48.392;9.950;2023-11-21T13:00:32;18.10;81.60
580;DHT22;276;48.392;9.950;2023-11-21T13:03:03;17.50;83.20
580;DHT22;276;48.392;9.950;2023-11-21T13:05:39;17.10;84.90
580;DHT22;276;48.392;9.950;2023-11-21T13:08:11;16.60;86.20
580;DHT22;276;48.392;9.950;2023-11-21T13:10:43;16.30;87.90
580;DHT22;276;48.392;9.950;2023-11-21T13:13:15;16.00;89.40
580;DHT22;276;48.392;9.950;2023-11-21T13:15:52;15.70;90.20
580;DHT22;276;48.392;9.950;2023-11-21T13:18:24;15.40;90.80
580;DHT22;276;48.392;9.950;2023-11-21T13:20:53;15.20;91.50
580;DHT22;276;48.392;9.950;2023-11-21T13:23:20;15.00;92.00
580;DHT22;276;48.392;9.950;2023-11-21T13:25:46;14.80;92.50
580;DHT22;276;48.392;9.950;2023-11-21T13:28:13;14.70;93.10
580;DHT22;276;48.392;9.950;2023-11-21T13:30:41;14.60;93.50
580;DHT22;276;48.392;9.950;2023-11-21T13:33:10;14.50;93.90
580;DHT22;276;48.392;9.950;2023-11-21T13:35:47;14.40;94.50
580;DHT22;276;48.392;9.950;2023-11-21T13:38:17;14.40;95.10
580;DHT22;276;48.392;9.950;2023-11-21T13:40:51;14.30;95.60
580;DHT22;276;48.392;9.950;2023-11-21T13:43:20;14.30;95.90
580;DHT22;276;48.392;9.950;2023-11-21T13:45:51;14.20;96.20
580;DHT22;276;48.392;9.950;2023-11-21T13:48:24;14.20;96.40
580;DHT22;276;48.392;9.950;2023-11-21T13:51:08;14.10;96.90
580;DHT22;276;48.392;9.950;2023-11-21T13:53:41;14.10;96.90
580;DHT22;276;48.392;9.950;2023-11-21T13:56:13;14.10;97.10
580;DHT22;276;48.392;9.950;2023-11-21T13:58:43;14.10;97.30
580;DHT22;276;48.392;9.950;2023-11-21T14:01:19;14.00;97.50
580;DHT22;276;48.392;9.950;2023-11-21T14:04:13;14.00;97.70
580;DHT22;276;48.392;9.950;2023-11-21T14:06:40;14.00;97.90
580;DHT22;276;48.392;9.950;2023-11-21T14:09:17;13.90;98.30
580;DHT22;276;48.392;9.950;2023-11-21T14:11:53;13.80;98.20
580;DHT22;276;48.392;9.950;2023-11-21T14:14:24;13.80;98.40
580;DHT22;276;48.392;9.950;2023-11-21T14:16:55;13.70;98.50
580;DHT22;276;48.392;9.950;2023-11-21T14:19:32;13.70;98.80
580;DHT22;276;48.392;9.950;2023-11-21T14:22:04;13.70;99.10
580;DHT22;276;48.392;9.950;2023-11-21T14:24:29;13.70;99.20
580;DHT22;276;48.392;9.950;2023-11-21T14:26:58;13.60;99.40
580;DHT22;276;48.392;9.950;2023-11-21T14:29:26;13.60;99.50
580;DHT22;276;48.392;9.950;2023-11-21T14:31:53;13.60;99.80
580;DHT22;276;48.392;9.950;2023-11-21T14:34:22;13.60;99.90
580;DHT22;276;48.392;9.950;2023-11-21T14:36:52;13.50;99.90
580;DHT22;276;48.392;9.950;2023-11-21T14:39:20;13.50;99.90
580;DHT22;276;48.392;9.950;2023-11-21T14:41:53;13.50;99.90
580;DHT22;276;48.392;9.950;2023-11-21T14:44:21;13.50;99.90
580;DHT22;276;48.392;9.950;2023-11-21T14:46:54;13.40;99.90
580;DHT22;276;48.392;9.950;2023-11-21T14:49:23;13.40;99.90
580;DHT22;276;48.392;9.950;2023-11-21T14:51:54;13.40;99.90
580;DHT22;276;48.392;9.950;2023-11-21T14:54:29;13.30;99.90
580;DHT22;276;48.392;9.950;2023-11-21T14:57:04;13.30;99.90
580;DHT22;276;48.392;9.950;2023-11-21T14:59:35;13.30;99.90
580;DHT22;276;48.392;9.950;2023-11-21T15:02:00;13.30;99.90
580;DHT22;276;48.392;9.950;2023-11-21T15:04:42;13.20;99.90
580;DHT22;276;48.392;9.950;2023-11-21T15:07:08;13.20;99.90
580;DHT22;276;48.392;9.950;2023-11-21T15:09:37;13.20;99.90
580;DHT22;276;48.392;9.950;2023-11-21T15:12:12;13.20;99.90
580;DHT22;276;48.392;9.950;2023-11-21T15:14:58;13.20;99.90
580;DHT22;276;48.392;9.950;2023-11-21T15:17:26;13.10;99.90
580;DHT22;276;48.392;9.950;2023-11-21T15:19:58;13.10;99.90
580;DHT22;276;48.392;9.950;2023-11-21T15:22:25;13.10;99.90
580;DHT22;276;48.392;9.950;2023-11-21T15:24:52;13.10;99.90
580;DHT22;276;48.392;9.950;2023-11-21T15:27:19;13.10;99.90
580;DHT22;276;48.392;9.950;2023-11-21T15:29:49;13.10;99.90
580;DHT22;276;48.392;9.950;2023-11-21T15:32:15;13.00;99.90
580;DHT22;276;48.392;9.950;2023-11-21T15:34:41;13.00;99.90
580;DHT22;276;48.392;9.950;2023-11-21T15:37:09;13.00;99.90
580;DHT22;276;48.392;9.950;2023-11-21T15:39:37;13.00;99.90
580;DHT22;276;48.392;9.950;2023-11-21T15:42:06;13.00;99.90
580;DHT22;276;48.392;9.950;2023-11-21T15:44:32;12.90;99.90
580;DHT22;276;48.392;9.950;2023-11-21T15:46:59;12.90;99.90
580;DHT22;276;48.392;9.950;2023-11-21T15:49:25;12.90;99.90
580;DHT22;276;48.392;9.950;2023-11-21T15:51:57;12.90;99.90
580;DHT22;276;48.392;9.950;2023-11-21T15:54:25;12.90;99.90
580;DHT22;276;48.392;9.950;2023-11-21T15:56:52;12.80;99.90
580;DHT22;276;48.392;9.950;2023-11-21T15:59:18;12.80;99.90
580;DHT22;276;48.392;9.950;2023-11-21T16:01:49;12.80;99.90
580;DHT22;276;48.392;9.950;2023-11-21T16:04:19;12.80;99.90
580;DHT22;276;48.392;9.950;2023-11-21T16:06:47;12.80;99.90
580;DHT22;276;48.392;9.950;2023-11-21T16:09:17;12.80;99.90
580;DHT22;276;48.392;9.950;2023-11-21T16:12:00;12.80;99.90
580;DHT22;276;48.392;9.950;2023-11-21T16:14:28;12.70;99.90
580;DHT22;276;48.392;9.950;2023-11-21T16:17:03;12.70;99.90
580;DHT22;276;48.392;9.950;2023-11-21T16:19:32;12.70;99.90
580;DHT22;276;48.392;9.950;2023-11-21T16:21:58;12.70;99.90
580;DHT22;276;48.392;9.950;2023-11-21T16:24:25;12.70;99.90
580;DHT22;276;48.392;9.950;2023-11-21T16:26:55;12.60;99.90
580;DHT22;276;48.392;9.950;2023-11-21T16:29:21;12.60;99.90
580;DHT22;276;48.392;9.950;2023-11-21T16:31:47;12.60;99.90
580;DHT22;276;48.392;9.950;2023-11-21T16:34:22;12.60;99.90
580;DHT22;276;48.392;9.950;2023-11-21T16:36:47;12.50;99.90
580;DHT22;276;48.392;9.950;2023-11-21T16:39:17;12.50;99.90
580;DHT22;276;48.392;9.950;2023-11-21T16:41:45;12.50;99.90
580;DHT22;276;48.392;9.950;2023-11-21T16:46:47;12.50;99.90
580;DHT22;276;48.392;9.950;2023-11-21T16:49:17;12.40;99.90
580;DHT22;276;48.392;9.950;2023-11-21T16:51:48;12.40;99.90
580;DHT22;276;48.392;9.950;2023-11-21T16:54:18;12.30;99.90
580;DHT22;276;48.392;9.950;2023-11-21T16:56:49;12.30;99.90
580;DHT22;276;48.392;9.950;2023-11-21T16:59:17;12.30;99.90
580;DHT22;276;48.392;9.950;2023-11-21T17:01:43;12.30;99.90
580;DHT22;276;48.392;9.950;2023-11-21T17:04:13;12.20;99.90
580;DHT22;276;48.392;9.950;2023-11-21T17:06:43;12.20;99.90
580;DHT22;276;48.392;9.950;2023-11-21T17:09:11;12.20;99.90
580;DHT22;276;48.392;9.950;2023-11-21T17:11:42;12.20;99.90
580;DHT22;276;48.392;9.950;2023-11-21T17:14:08;12.20;99.90